Latest Weather Observations for Wadeye (Port Keats)

IDD60801

Issued at 9:35 pm CST Monday 28 July 2014 (issued every 30 minutes, with the page automatically refreshed every 10 minutes)

About weather observations | Map of weather stations | Latest weather observations for NT | Other Formats
Station Details ID: 014948 Name: PORT KEATS AIRPORT Lat: -14.25 Lon: 129.53 Height: 28.0 m
Data from the previous 72 hours. | See also: Recent months at Wadeye (Port Keats)
Date/Time
CST
Temp
°C
App
Temp
°C
Dew
Point
Rel
Hum
%
Delta-T
°C
Wind Press
QNH
hPa
Press
MSL
hPa
Rain
since 9 am
mm
Dir
 
Spd
km/h
Gust
km/h
Spd
kts
Gust
kts
28/09:30pm 22.2 23.1 15.1 64 4.2 S 4 7 2 4 1015.2 - 0.0
28/09:00pm 22.7 23.3 15.3 63 4.4 S 6 7 3 4 1015.0 1014.8 0.0
28/08:30pm 22.8 23.1 14.9 61 4.7 SSW 7 9 4 5 1014.7 - 0.0
28/08:00pm 23.4 23.8 14.7 58 5.2 SSW 6 7 3 4 1014.3 - 0.0
28/07:30pm 24.1 24.5 14.8 56 5.5 WSW 6 7 3 4 1014.1 - 0.0
28/07:00pm 25.4 25.7 14.5 51 6.5 W 6 7 3 4 1013.8 - 0.0
28/06:30pm 26.4 25.7 14.2 47 7.3 WSW 11 17 6 9 1013.5 - 0.0
28/06:00pm 27.5 26.8 14.2 44 8.0 WSW 11 15 6 8 1013.1 1012.9 0.0
28/05:30pm 28.8 27.7 14.2 40 8.8 W 13 19 7 10 1012.8 - 0.0
28/05:00pm 28.5 26.8 13.6 40 8.9 W 15 20 8 11 1012.7 - 0.0
28/04:30pm 29.1 27.9 14.1 40 9.0 W 13 20 7 11 1012.6 - 0.0
28/04:00pm 29.4 28.0 14.4 40 9.1 WSW 15 20 8 11 1012.7 - 0.0
28/03:30pm 29.5 29.1 15.2 41 8.8 W 11 19 6 10 1013.1 - 0.0
28/03:00pm 29.0 28.5 15.9 45 8.1 W 13 20 7 11 1013.3 1013.1 0.0
28/02:30pm 31.4 29.6 10.7 28 11.9 SSE 11 17 6 9 1013.7 - 0.0
28/02:00pm 31.4 28.6 11.2 29 11.7 ESE 17 24 9 13 1014.3 - 0.0
28/01:30pm 31.9 29.0 11.1 28 12.1 SE 17 26 9 14 1014.6 - 0.0
28/01:00pm 31.3 29.5 12.2 31 11.3 SE 13 24 7 13 1015.1 - 0.0
28/12:30pm 31.4 28.9 12.2 30 11.3 E 17 28 9 15 1015.6 - 0.0
28/12:00pm 31.2 29.1 12.5 31 11.1 E 15 24 8 13 1016.2 1016.0 0.0
28/11:30am 30.0 26.8 12.0 33 10.5 E 20 28 11 15 1016.7 - 0.0
28/11:00am 29.9 27.4 12.3 33 10.3 ENE 17 28 9 15 1017.2 - 0.0
28/10:30am 29.0 27.3 13.6 38 9.2 ENE 15 20 8 11 1017.5 - 0.0
28/10:00am 28.2 26.7 14.1 42 8.5 E 15 26 8 14 1017.6 - 0.0
28/09:30am 27.4 27.1 16.4 51 6.8 E 13 20 7 11 1017.5 - 0.0
28/09:00am 26.2 27.4 19.1 65 4.6 E 11 17 6 9 1017.3 1017.1 0.0
28/08:30am 24.7 26.3 19.1 71 3.6 E 9 11 5 6 1017.0 - 0.0
28/08:00am 23.3 25.0 18.6 75 3.0 E 7 11 4 6 1016.7 - 0.0
28/07:30am 22.3 23.7 17.9 76 2.7 E 7 9 4 5 1016.3 - 0.0
28/07:00am 22.9 24.2 17.6 72 3.3 E 7 9 4 5 1016.1 - 0.0
28/06:30am 24.2 24.6 17.2 65 4.3 E 11 15 6 8 1015.8 - 0.0
28/06:00am 24.7 25.1 16.2 59 5.2 ESE 9 11 5 6 1015.4 1015.2 0.0
28/05:30am 24.6 25.0 15.2 55 5.7 ESE 7 9 4 5 1015.2 - 0.0
28/05:00am 24.9 25.1 14.7 53 6.1 ESE 7 11 4 6 1014.9 - 0.0
28/04:30am 24.8 25.0 14.6 53 6.1 E 7 9 4 5 1014.6 - 0.0
28/04:00am 24.7 25.1 15.3 56 5.7 ESE 7 9 4 5 1014.6 - 0.0
28/03:30am 24.6 25.5 16.6 61 4.9 E 7 9 4 5 1014.6 - 0.0
28/03:00am 23.3 25.5 16.6 66 4.1 CALM 0 0 0 0 1014.5 1014.3 0.0
28/02:30am 23.2 24.0 16.3 65 4.2 SSE 7 9 4 5 1014.6 - 0.0
28/02:00am 23.1 23.8 16.2 65 4.2 SSE 7 9 4 5 1014.8 - 0.0
28/01:30am 22.7 23.8 16.7 69 3.7 S 6 7 3 4 1015.0 - 0.0
28/01:00am 22.7 23.8 16.5 68 3.8 S 6 7 3 4 1015.2 - 0.0
28/12:30am 21.6 22.6 16.8 74 2.9 SSW 7 9 4 5 1015.3 - 0.0
28/12:00am 22.0 23.1 17.2 74 2.9 SSW 7 9 4 5 1015.5 1015.3 0.0
 
Date/Time
CST
Temp
°C
App
Temp
°C
Dew
Point
Rel
Hum
%
Delta-T
°C
Wind Press
QNH
hPa
Press
MSL
hPa
Rain
since 9 am
mm
Dir
 
Spd
km/h
Gust
km/h
Spd
kts
Gust
kts
27/11:30pm 22.3 24.7 17.0 72 3.3 CALM 0 0 0 0 1015.5 - 0.0
27/11:00pm 22.6 25.0 16.9 70 3.5 CALM 0 0 0 0 1015.7 - 0.0
27/10:30pm 23.8 24.6 17.3 67 4.0 SSW 9 13 5 7 1015.6 - 0.0
27/10:00pm 22.7 24.0 17.6 73 3.2 SSW 7 13 4 7 1015.7 - 0.0
27/09:30pm 23.3 25.9 17.5 70 3.6 CALM 0 0 0 0 1015.6 - 0.0
27/09:00pm 24.0 26.1 18.0 69 3.8 SW 4 11 2 6 1015.4 1015.2 0.0
27/08:30pm 24.2 25.9 18.4 70 3.7 SSW 7 11 4 6 1015.2 - 0.0
27/08:00pm 24.2 25.6 17.7 67 4.1 SW 7 11 4 6 1014.7 - 0.0
27/07:30pm 24.8 26.1 17.5 64 4.6 SW 7 9 4 5 1014.4 - 0.0
27/07:00pm 25.6 26.6 17.8 62 4.9 WSW 9 13 5 7 1014.1 - 0.0
27/06:30pm 26.7 27.2 17.5 57 5.8 WSW 11 17 6 9 1013.7 - 0.0
27/06:00pm 28.9 28.7 15.8 45 8.1 WSW 11 17 6 9 1013.3 1013.1 0.0
27/05:30pm 30.2 29.5 15.5 41 9.1 SW 13 19 7 10 1012.9 - 0.0
27/05:00pm 30.3 29.5 15.2 40 9.3 SW 13 20 7 11 1013.0 - 0.0
27/04:30pm 30.2 30.1 16.9 44 8.4 W 13 17 7 9 1012.9 - 0.0
27/04:00pm 31.0 30.3 14.2 36 10.2 WSW 11 20 6 11 1013.0 - 0.0
27/03:30pm 30.2 28.6 13.9 37 9.8 WSW 15 24 8 13 1013.1 - 0.0
27/03:00pm 30.6 29.4 15.1 39 9.5 WSW 15 20 8 11 1013.6 1013.4 0.0
27/02:30pm 30.8 30.3 16.0 40 9.2 W 13 20 7 11 1013.9 - 0.0
27/02:00pm 31.7 29.4 10.4 27 12.2 E 13 24 7 13 1014.5 - 0.0
27/01:30pm 32.2 30.3 11.9 29 12.0 ENE 13 20 7 11 1015.0 - 0.0
27/01:00pm 31.7 30.7 13.5 33 11.0 ESE 11 19 6 10 1015.6 - 0.0
27/12:30pm 30.9 28.9 12.8 33 10.7 E 15 22 8 12 1016.4 - 0.0
27/12:00pm 31.1 28.9 13.4 34 10.6 E 17 26 9 14 1016.8 1016.6 0.0
27/11:30am 29.6 28.5 14.2 39 9.3 ENE 13 22 7 12 1017.3 - 0.0
27/11:00am 29.2 28.7 15.0 42 8.7 ENE 11 19 6 10 1017.7 - 0.0
27/10:30am 28.4 29.1 17.0 50 7.2 ENE 9 13 5 7 1018.1 - 0.0
27/10:00am 26.6 26.7 16.5 54 6.2 E 11 17 6 9 1018.3 - 0.0
27/09:30am 25.9 26.0 16.5 56 5.8 E 11 17 6 9 1018.2 - 0.0
27/09:00am 23.7 24.5 17.2 67 4.0 E 9 11 5 6 1018.1 1017.9 0.0
27/08:30am 22.9 23.5 16.7 68 3.8 E 9 11 5 6 1017.8 - 0.0
27/08:00am 22.3 22.9 15.9 67 3.9 E 7 11 4 6 1017.6 - 0.0
27/07:30am 21.8 22.1 14.9 65 4.1 ESE 7 11 4 6 1017.3 - 0.0
27/07:00am 21.5 21.8 15.1 67 3.8 ESE 7 9 4 5 1017.2 - 0.0
27/06:30am 21.4 21.8 14.8 66 3.9 NNE 6 6 3 3 1016.8 - 0.0
27/06:00am 21.7 21.9 14.1 62 4.4 SE 6 9 3 5 1016.3 1016.1 0.0
27/05:30am 22.9 22.5 14.2 58 5.1 SE 9 11 5 6 1016.0 - 0.0
27/05:00am 23.7 22.0 14.7 57 5.3 E 17 28 9 15 1015.8 - 0.0
27/04:30am 21.2 21.9 16.2 73 3.0 E 7 15 4 8 1015.6 - 0.0
27/04:00am 20.6 22.8 16.6 78 2.4 CALM 0 0 0 0 1015.6 - 0.0
27/03:30am 21.7 23.1 17.3 76 2.7 N 6 9 3 5 1015.7 - 0.0
27/03:00am 22.2 24.3 17.1 73 3.1 SSE 2 6 1 3 1015.6 1015.4 0.0
27/02:30am 22.5 24.6 17.2 72 3.3 SSE 2 7 1 4 1015.8 - 0.0
27/02:00am 22.3 24.9 17.4 74 3.0 CALM 0 4 0 2 1015.9 - 0.0
27/01:30am 22.0 23.9 17.6 76 2.7 SSW 4 7 2 4 1015.9 - 0.0
27/01:00am 23.2 24.9 17.2 69 3.7 SSE 4 6 2 3 1016.3 - 0.0
27/12:30am 23.7 24.7 17.7 69 3.7 SSE 9 20 5 11 1016.5 - 0.0
27/12:00am 22.6 23.8 18.2 76 2.8 SW 9 11 5 6 1016.4 1016.2 0.0
 
Date/Time
CST
Temp
°C
App
Temp
°C
Dew
Point
Rel
Hum
%
Delta-T
°C
Wind Press
QNH
hPa
Press
MSL
hPa
Rain
since 9 am
mm
Dir
 
Spd
km/h
Gust
km/h
Spd
kts
Gust
kts
26/11:30pm 22.7 25.4 18.7 78 2.5 SW 2 7 1 4 1016.6 - 0.0
26/11:00pm 22.1 23.6 18.9 82 2.0 SW 9 11 5 6 1016.7 - 0.0
26/10:30pm 22.1 24.5 18.7 81 2.1 S 4 11 2 6 1017.0 - 0.0
26/10:00pm 22.8 26.1 19.0 79 2.4 CALM 0 0 0 0 1017.0 - 0.0
26/09:30pm 22.9 26.1 18.9 78 2.5 CALM 0 0 0 0 1017.0 - 0.0
26/09:00pm 23.1 26.0 19.1 78 2.5 WSW 2 9 1 5 1016.8 1016.6 0.0
26/08:30pm 23.1 25.3 18.4 75 3.0 SSW 4 7 2 4 1016.5 - 0.0
26/08:00pm 23.9 25.8 18.5 72 3.4 SW 6 7 3 4 1016.1 - 0.0
26/07:30pm 24.1 26.3 18.3 70 3.7 SW 4 7 2 4 1016.1 - 0.0
26/07:00pm 24.4 26.0 17.9 67 4.1 SW 6 9 3 5 1015.8 - 0.0
26/06:30pm 25.3 26.6 17.5 62 4.9 WSW 7 13 4 7 1015.5 - 0.0
26/06:00pm 26.7 27.2 17.5 57 5.8 W 11 17 6 9 1015.2 1015.0 0.0
26/05:30pm 27.8 28.2 17.3 52 6.6 W 11 17 6 9 1015.0 - 0.0
26/05:00pm 28.0 27.6 16.3 49 7.3 W 13 19 7 10 1014.7 - 0.0
26/04:30pm 28.3 27.3 15.6 46 7.8 WSW 15 20 8 11 1014.6 - 0.0
26/04:00pm 28.9 28.6 16.5 47 7.7 WSW 13 20 7 11 1014.7 - 0.0
26/03:30pm 28.9 29.0 17.4 49 7.3 W 13 22 7 12 1014.8 - 0.0
26/03:00pm 27.1 26.9 16.7 53 6.5 W 13 19 7 10 1015.0 1014.8 0.0
26/02:30pm 31.6 29.8 10.9 28 12.0 E 11 22 6 12 1014.9 - 0.0
26/02:00pm 31.8 29.2 12.1 30 11.6 ESE 17 30 9 16 1015.2 - 0.0
26/01:30pm 31.3 28.2 11.7 30 11.5 ESE 19 30 10 16 1015.6 - 0.0
26/01:00pm 31.3 29.1 12.2 31 11.3 ENE 15 22 8 12 1016.1 - 0.0
26/12:30pm 30.8 29.6 14.0 36 10.2 NE 13 20 7 11 1016.6 - 0.0
26/12:00pm 29.4 28.1 13.6 38 9.4 NE 13 24 7 13 1017.1 1016.9 0.0
26/11:30am 28.3 26.5 13.4 40 8.8 N 15 22 8 12 1017.6 - 0.0
26/11:00am 28.0 26.3 12.4 38 9.1 ENE 13 20 7 11 1018.0 - 0.0
26/10:30am 27.3 24.7 12.1 39 8.8 ENE 17 24 9 13 1018.1 - 0.0
26/10:00am 26.6 23.8 11.5 39 8.6 E 17 22 9 12 1018.0 - 0.0
26/09:30am 26.0 23.7 11.7 41 8.2 E 15 24 8 13 1018.0 - 0.0
26/09:00am 25.0 22.7 11.6 43 7.6 ESE 15 20 8 11 1017.6 1017.4 0.0
26/08:30am 23.8 22.4 12.1 48 6.7 SE 11 17 6 9 1017.3 - 0.0
26/08:00am 22.8 21.2 12.7 53 5.8 SE 13 17 7 9 1016.9 - 0.0
26/07:47am 22.3 21.5 13.9 59 4.9 SE 11 15 6 8 1016.8 - 0.0
26/07:30am 17.2 17.2 15.2 88 1.2 SE 9 11 5 6 1016.6 - 0.0
26/07:00am 17.2 17.3 15.4 89 1.1 SE 9 13 5 7 1016.6 - 0.0
26/06:30am 17.4 17.7 15.9 91 0.9 SSE 9 11 5 6 1016.5 - 0.0
26/06:00am 17.4 19.6 16.4 94 0.6 CALM 0 0 0 0 1016.3 1016.1 0.0
26/05:30am 16.6 18.3 15.3 92 0.8 CALM 0 0 0 0 1015.9 - 0.0
26/05:00am 17.2 19.0 15.5 90 1.0 CALM 0 0 0 0 1015.7 - 0.0
26/04:30am 18.4 20.3 16.6 89 1.1 W 2 7 1 4 1015.6 - 0.0
26/04:00am 18.3 20.6 16.8 91 0.9 CALM 0 0 0 0 1015.6 - 0.0
26/03:30am 17.6 19.6 15.9 90 1.0 CALM 0 7 0 4 1015.6 - 0.0
26/03:00am 17.9 20.1 16.4 91 0.9 CALM 0 0 0 0 1015.9 1015.7 0.0
26/02:30am 17.7 19.3 16.0 90 1.0 SE 2 6 1 3 1016.0 - 0.0
26/02:00am 18.2 20.0 16.4 89 1.1 ESE 2 6 1 3 1016.2 - 0.0
26/01:30am 18.1 19.8 16.3 89 1.1 ESE 2 7 1 4 1016.3 - 0.0
26/01:00am 18.8 20.8 16.0 84 1.7 CALM 0 0 0 0 1016.4 - 0.0
26/12:30am 20.0 21.6 17.0 83 1.8 ENE 4 6 2 3 1016.5 - 0.0
26/12:00am 19.6 20.6 16.4 82 1.9 S 6 9 3 5 1016.3 1016.1 0.0
 
Date/Time
CST
Temp
°C
App
Temp
°C
Dew
Point
Rel
Hum
%
Delta-T
°C
Wind Press
QNH
hPa
Press
MSL
hPa
Rain
since 9 am
mm
Dir
 
Spd
km/h
Gust
km/h
Spd
kts
Gust
kts
25/11:30pm 20.1 21.2 17.9 87 1.4 S 9 11 5 6 1016.4 - 0.0
25/11:00pm 18.9 20.3 16.5 86 1.4 ESE 4 9 2 5 1016.2 - 0.0
25/10:30pm 19.3 21.6 16.7 85 1.6 CALM 0 0 0 0 1016.3 - 0.0
25/10:00pm 19.6 21.8 16.6 83 1.8 CALM 0 0 0 0 1016.3 - 0.0

Other Formats:

Comma delimited format used in spreadsheet applications
http://www.bom.gov.au/fwo/IDD60801/IDD60801.95111.axf

JavaScript Object Notation format (JSON) in row-major order
http://www.bom.gov.au/fwo/IDD60801/IDD60801.95111.json